Tiempo atmosférico en la estación meteorológica de Ayamonte, Huelva (2 m.)



Fecha
DESCASC
Temp. máxima en grados centígrados (hora)
DESCASC
Temp. mínima en grados centígrados (hora)
DESCASC
Temp. media en grados centígrados
DESCASC
Racha de viento máxima en m/sg (hora)
DESCASC
Velocidad máxima media en intervalos de 10 minutos(hora)
DESCASC
Precipitaciones diarias en mm
DESCASC
Precipitaciones de 00:00 a 06:00 en mm
DESCASC
Precipitaciones de 06:00 a 12:00 en mm
DESCASC
Precipitaciones de 12:00 a 18:00 en mm
DESCASC
Precipitaciones de 18:00 a 24:00 en mm
DESCASC
11-12-2019 18.5 (14:20) 8.1 (07:10) 13.3 9.17 (15:40) 4.72 (17:00) 0 0 0 0 0
10-12-2019 20.6 (14:30) 8.3 (06:30) 14.5 6.11 (22:20) 2.78 (01:20) 0 0 0 0 0
09-12-2019 21.2 (15:50) 11.9 (21:30) 16.6 4.44 (14:40) 2.22 (14:40) 0 0 0 0 0
08-12-2019 20.6 (14:00) 9.2 (00:00) 14.9 6.11 (16:10) 3.33 (16:00) 0 0 0 0 0
07-12-2019 21 (14:20) 9.9 (00:00) 15.4 4.44 (02:00) 2.22 (14:30) 0 0 0 0 0
06-12-2019 21.8 (16:10) 10 (00:00) 15.9 6.11 (05:50) 3.33 (05:50) 0 0 0 0 0
05-12-2019 20.1 (14:50) 8.2 (00:00) 14.2 6.11 (14:50) 2.78 (12:20) 0 0 0 0 0
04-12-2019 16.7 (14:30) 8.6 (00:00) 12.7 5.83 (12:10) 3.33 (14:10) 0 0 0 0 0
03-12-2019 19.4 (15:30) 10.5 (00:00) 14.9 6.94 (09:30) 3.06 (09:30) 0 0 0 0 0
02-12-2019 16.6 (15:20) 11.6 (00:00) 14.1 8.89 (04:30) 4.17 (05:10) 0.4 0 0 0.3 0.1
01-12-2019 19.4 (14:50) 10.7 (00:00) 15 8.33 (17:00) 4.17 (15:30) 3 0 0.1 2.9 0
30-11-2019 19.7 (13:00) 11.1 (00:00) 15.4 6.67 (18:20) 3.89 (16:20) 0.2 0 0 0 0.2
29-11-2019 19.5 (14:20) 9.4 (00:00) 14.4 3.61 (14:50) 2.22 (15:40) 0 0 0 0 0
28-11-2019 19.7 (14:30) 9 (00:00) 14.4 4.17 (15:10) 2.5 (15:10) 0 0 0 0 0
27-11-2019 18.1 (16:10) 12.2 (00:00) 15.2 3.33 (03:20) 1.94 (01:20) 0.3 0.1 0.1 0.1 0
26-11-2019 21.3 (14:40) 15.9 (00:00) 18.6 8.61 (17:30) 5.28 (15:40) 0.6 0.1 0 0 0.5
25-11-2019 22.3 (14:30) 15 (00:00) 18.6 9.44 (13:20) 5.28 (13:00) 0 0 0 0 0
24-11-2019 18.5 (16:10) 7.7 (00:00) 13.1 7.5 (16:40) 4.17 (16:40) 0 0 0 0 0
23-11-2019 19.6 (14:50) 11.6 (00:00) 15.6 8.89 (12:40) 3.89 (01:50) 0 0 0 0 0
22-11-2019 18.7 (16:20) 11.3 (00:00) 15 13.61 (13:40) 7.5 (12:50) 6.8 0.2 2.3 4.3 0
21-11-2019 17.6 (12:40) 11.3 (00:00) 14.5 3.89 (14:40) 1.94 (13:00) 4.2 0 0.5 3.7 0
20-11-2019 19.3 (14:50) 9.6 (00:00) 14.4 8.61 (18:30) 4.72 (18:20) 4.1 0.6 3.4 0.1 0
19-11-2019 18.7 (12:50) 8.9 (00:00) 13.8 4.44 (02:10) 2.78 (16:40) 0 0 0 0 0
18-11-2019 19.3 (16:10) 10.5 (00:00) 14.9 13.06 (06:50) 6.39 (07:00) 0 0 0 0 0
17-11-2019 21.5 (14:00) 6.6 (00:00) 14 8.89 (15:10) 5 (14:50) 0.3 0.1 0.2 0 0
16-11-2019 17.7 (14:50) 7.3 (00:00) 12.5 7.22 (05:40) 3.89 (15:10) 0 0 0 0 0
15-11-2019 16.1 (14:40) 9.3 (00:00) 12.7 12.78 (13:10) 5.83 (13:30) 0 0 0 0 0
14-11-2019 17.6 (11:30) 12 (00:00) 14.8 13.89 (13:10) 6.11 (13:10) 1.9 0 0.7 1.2 0
13-11-2019 23.7 (15:30) 14.3 (00:00) 19 7.78 (11:20) 3.89 (02:50) 0 0 0 0 0
12-11-2019 21.8 (15:30) 11.5 (00:00) 16.6 8.61 (01:40) 4.17 (17:20) 0 0 0 0 0

Gráficas

Temp. máximas Temp. mínimas Temp. medias Precipitaciones Rachas de viento máximas Velocidades máximas media en intervalos de 10 minutos

Datos horarios

Fecha y hora oficial Temperatura (ºC) Velocidad del viento (km/h) Dirección del viento Racha (km/h) Dirección de racha Precipitación (mm) Presión (hPa) Tendencia (hPa) Humedad (%)
2019-12-11 23:00:00 11.5 5 Norte 22 Norte 0 1029 1 59
2019-12-11 22:00:00 12.1 8 Norte 21 Noroeste 0 1028.8 1.3 56
2019-12-11 21:00:00 12.2 8 Norte 16 Noroeste 0 1028.5 2 58
2019-12-11 20:00:00 12.6 3 Noroeste 13 Norte 0 1028 2.1 55
2019-12-11 19:00:00 13.9 5 Noroeste 19 Noroeste 0 1027.5 2 51
2019-12-11 18:00:00 15.5 12 Noroeste 28 Norte 0 1026.5 1.1 48
2019-12-11 17:00:00 16.4 17 Noroeste 33 Noroeste 0 1025.9 0.2 45
2019-12-11 16:00:00 17.7 11 Norte 33 Noroeste 0 1025.5 -0.9 43
2019-12-11 15:00:00 17.5 13 Norte 28 Norte 0 1025.4 -1.4 52
2019-12-11 14:00:00 17.8 10 Norte 26 Noroeste 0 1025.7 -1.2 59
2019-12-11 13:00:00 16.8 6 Noroeste 13 Noroeste 0 1026.4 0 76
2019-12-11 12:00:00 16.2 5 Noroeste 15 Norte 0 1026.8 0.5 74
2019-12-11 11:00:00 15.3 7 Noroeste 17 Norte 0 1026.9 1.3 78
2019-12-11 10:00:00 13.6 4 Noroeste 9 Noroeste 0 1026.4 1.6 83
2019-12-11 09:00:00 11.6 6 Noroeste 16 Noroeste 0 1026.3 1.7 87
2019-12-11 08:00:00 9.7 6 Norte 12 Norte 0 1025.6 0.7 86
2019-12-11 07:00:00 8.5 0 Calma 7 Norte 0 1024.8 0 84
2019-12-11 06:00:00 9.6 0 Calma 7 Nordeste 0 1024.6 -0.2 81
2019-12-11 05:00:00 10.2 2 Norte 11 Norte 0 1024.9 0 81
2019-12-11 04:00:00 11.3 6 Norte 16 Noroeste 0 1024.8 -0.5 80
2019-12-11 03:00:00 11.1 4 Norte 12 Norte 0 1024.8 -0.6 79
2019-12-11 02:00:00 11.7 4 Norte 18 Norte 0 1024.9 -0.8 74
2019-12-11 01:00:00 12 4 Noroeste 12 Noroeste 0 1025.3 -0.2 72
2019-12-11 00:00:00 11.8 3 Norte 10 Norte 0 1025.4 0.1 70
2019-12-10 23:00:00 12.8 4 Noroeste 22 Norte 0 1025.7 0.4 65
2019-12-10 22:00:00 12.4 5 Norte 12 Norte 0 1025.5 0 67
2019-12-10 21:00:00 12.7 5 Noroeste 9 Norte 0 1025.3 -0.1 77
2019-12-10 20:00:00 13.6 0 Calma 10 Oeste 0 1025.3 0 82
2019-12-10 19:00:00 14.6 5 Oeste 11 Oeste 0 1025.5 0.3 76
2019-12-10 18:00:00 15.7 4 Sudoeste 9 Sudoeste 0 1025.4 -0.3 63
2019-12-10 17:00:00 17.5 6 Oeste 14 Oeste 0 1025.3 -1.2 55
2019-12-10 16:00:00 18.4 8 Sudoeste 16 Sudoeste 0 1025.2 -2.5 53
2019-12-10 15:00:00 18.4 9 Sudoeste 13 Sudoeste 0 1025.7 -2.4 47
2019-12-10 14:00:00 19.8 3 Norte 9 Oeste 0 1026.5 -1.8 41
2019-12-10 13:00:00 17.5 5 Noroeste 12 Noroeste 0 1027.7 -0.4 45
2019-12-10 12:00:00 16.8 2 Norte 12 Norte 0 1028.1 0.4 57
2019-12-10 11:00:00 14.4 6 Norte 14 Norte 0 1028.3 1.1 65
2019-12-10 10:00:00 12.4 4 Norte 10 Norte 0 1028.1 0.9 76
2019-12-10 09:00:00 10.2 4 Norte 9 Noroeste 0 1027.7 0.3 86
2019-12-10 08:00:00 10 3 Norte 12 Norte 0 1027.2 -0.2 86
2019-12-10 07:00:00 10.5 8 Norte 13 Noroeste 0 1027.2 -0.2 86
2019-12-10 06:00:00 8.9 0 Calma 7 Nordeste 0 1027.4 -0.1 85
2019-12-10 05:00:00 10.2 0 Calma 9 Norte 0 1027.4 -0.1 82
2019-12-10 04:00:00 11.9 3 Norte 13 Norte 0 1027.4 -0.6 78
2019-12-10 03:00:00 12.4 5 Norte 18 Noroeste 0 1027.5 -0.8 78
2019-12-10 02:00:00 13 8 Norte 21 Noroeste 0 1027.5 -0.8 77
2019-12-10 01:00:00 12.8 5 Norte 14 Noroeste 0 1028 -0.4 78
2019-12-10 00:00:00 13.5 6 Norte 15 Noroeste 0 1028.3 -0.1 77
2019-12-09 23:00:00 13.7 4 Norte 15 Noroeste 0 1028.3 0.1 73
2019-12-09 22:00:00 13.2 6 Noroeste 13 Noroeste 0 1028.4 0.8 75
2019-12-09 21:00:00 12.4 3 Oeste 5 Sur 0 1028.4 0.9 81
2019-12-09 20:00:00 13.7 0 Calma 4 Oeste 0 1028.2 0.9 80
2019-12-09 19:00:00 15.8 3 Oeste 11 Oeste 0 1027.6 0.3 73
2019-12-09 18:00:00 17.5 7 Sudoeste 13 Sudoeste 0 1027.5 -0.4 63
2019-12-09 17:00:00 20 3 Sudoeste 12 Noroeste 0 1027.3 -1.2 53
2019-12-09 16:00:00 20.8 2 Noroeste 14 Oeste 0 1027.3 -2 50
2019-12-09 15:00:00 20.2 0 Calma 16 Noroeste 0 1027.9 -2 53
2019-12-09 14:00:00 18.6 4 Noroeste 13 Norte 0 1028.5 -1 62
2019-12-09 13:00:00 18.1 6 Noroeste 14 Noroeste 0 1029.3 0.1 67
2019-12-09 12:00:00 17.9 5 Noroeste 15 Noroeste 0 1029.9 1.2 75
2019-12-09 11:00:00 17.1 0 Calma 10 Noroeste 0 1029.5 1.4 85
2019-12-09 10:00:00 16.5 5 Noroeste 11 Noroeste 0 1029.2 1.7 89
2019-12-09 09:00:00 16.3 0 Calma 6 Noroeste 0 1028.7 1.7 89
2019-12-09 08:00:00 15.8 0 Calma -- -- 0 1028.1 1.1 89
2019-12-09 07:00:00 15.7 0 Calma -- -- 0 1027.5 0.2 89
2019-12-09 06:00:00 16 0 Calma 6 Noroeste 0 1027 0 89
2019-12-09 05:00:00 16 4 Noroeste 8 Oeste 0 1027 0 89
2019-12-09 04:00:00 16 0 Calma 6 Oeste 0 1027.3 -0.1 86
2019-12-09 03:00:00 15.2 0 Calma 7 Oeste 0 1027 -0.5 85
2019-12-09 02:00:00 15.1 0 Calma 5 Nordeste 0 1027 0.1 85
2019-12-09 01:00:00 14.8 0 Calma -- -- 0 1027.4 0.3 84
2019-12-09 00:00:00 14.2 0 Calma 3 Noroeste 0 1027.5 0.7 86
2019-12-08 23:00:00 13.4 0 Calma 4 Oeste 0 1026.9 0.4 83
2019-12-08 22:00:00 14.2 3 Oeste 5 Noroeste 0 1027.1 0.9 81
2019-12-08 21:00:00 15.3 0 Calma 5 Noroeste 0 1026.8 1 78
2019-12-08 20:00:00 15.9 0 Calma 12 Oeste 0 1026.5 0.9 75
2019-12-08 19:00:00 16.3 4 Oeste 14 Sudoeste 0 1026.2 0.9 72
2019-12-08 18:00:00 16.6 8 Oeste 18 Oeste 0 1025.8 0.5 70
2019-12-08 17:00:00 17.5 10 Sudoeste 22 Sudoeste 0 1025.6 0 65
2019-12-08 16:00:00 19 12 Sudoeste 22 Sudoeste 0 1025.3 -1 56
2019-12-08 15:00:00 17.6 9 Sudoeste 16 Sudoeste 0 1025.3 -1.6 59
2019-12-08 14:00:00 18.4 8 Sur 16 Sur 0 1025.6 -1 54
2019-12-08 13:00:00 18.2 6 Norte 14 Norte 0 1026.3 -0.1 52
2019-12-08 12:00:00 16.6 6 Norte 20 Noroeste 0 1026.9 0.9 61
2019-12-08 11:00:00 14.6 5 Norte 16 Noroeste 0 1026.6 1.4 70
2019-12-08 10:00:00 12.2 5 Norte 19 Norte 0 1026.4 1.5 80
2019-12-08 09:00:00 10.6 3 Norte 14 Norte 0 1026 1.2 87
2019-12-08 08:00:00 10.1 5 Noroeste 11 Norte 0 1025.2 0.6 89
2019-12-08 07:00:00 9.6 0 Calma 10 Norte 0 1024.9 0.4 88
2019-12-08 06:00:00 10.4 3 Noroeste 11 Norte 0 1024.8 0.2 84
2019-12-08 05:00:00 10.3 6 Noroeste 12 Norte 0 1024.6 0 84
2019-12-08 04:00:00 11.4 6 Norte 10 Norte 0 1024.5 -0.4 81
2019-12-08 03:00:00 10.8 4 Norte 11 Norte 0 1024.6 -0.4 82
2019-12-08 02:00:00 11.4 3 Norte 11 Norte 0 1024.6 -0.1 81
2019-12-08 01:00:00 11.1 4 Noroeste 8 Noroeste 0 1024.9 0.5 83
2019-12-08 00:00:00 12.2 3 Norte 10 Noroeste 0 1025 1.1 80
2019-12-07 23:00:00 11.9 4 Noroeste 9 Noroeste 0 1024.7 1.1 81
2019-12-07 22:00:00 11.7 4 Noroeste 9 Noroeste 0 1024.4 1.4 82
2019-12-07 21:00:00 12.4 0 Calma 5 Noroeste 0 1023.9 1.4 79
2019-12-07 20:00:00 13.6 4 Noroeste 8 Oeste 0 1023.6 1.6 78
2019-12-07 19:00:00 14.1 4 Sudoeste 6 Sudoeste 0 1023 1.5 73
2019-12-07 18:00:00 16.2 0 Calma 15 Sudoeste 0 1022.5 0.9 61
2019-12-07 17:00:00 18.2 7 Sudoeste 13 Sudoeste 0 1022 -0.1 53
2019-12-07 16:00:00 20.5 4 Sur 10 Sudeste 0 1021.5 -1.5 46
2019-12-07 15:00:00 19.2 7 Sur 13 Sudoeste 0 1021.6 -1.8 47
2019-12-07 14:00:00 20.3 2 Noroeste 10 Sudoeste 0 1022.1 -1.2 46
2019-12-07 13:00:00 19.1 3 Nordeste 9 Este 0 1023 0.2 50
2019-12-07 12:00:00 15.9 6 Noroeste 12 Noroeste 0 1023.4 1.1 61
2019-12-07 11:00:00 14 3 Norte 13 Norte 0 1023.3 1.5 67
2019-12-07 10:00:00 11.6 5 Norte 14 Norte 0 1022.8 1.7 77
2019-12-07 09:00:00 10.2 5 Norte 15 Noroeste 0 1022.3 1.7 82
2019-12-07 08:00:00 10.5 5 Norte 12 Norte 0 1021.8 1.2 81
2019-12-07 07:00:00 10.9 5 Norte 15 Norte 0 1021.1 0.5 81
2019-12-07 06:00:00 11.1 6 Norte 15 Norte 0 1020.6 0.2 81
2019-12-07 05:00:00 10.8 4 Norte 12 Noroeste 0 1020.6 0 83
2019-12-07 04:00:00 10.1 3 Norte 6 Norte 0 1020.6 0 83
2019-12-07 03:00:00 10.9 0 Calma 14 Norte 0 1020.4 -0.2 77
2019-12-07 02:00:00 12.9 6 Norte 16 Nordeste 0 1020.6 0.7 73
2019-12-07 01:00:00 13 6 Norte 13 Norte 0 1020.6 1 72
2019-12-07 00:00:00 12.9 3 Norte 12 Norte 0 1020.6 1.4 71
2019-12-06 23:00:00 13.9 5 Noroeste 14 Noroeste 0 1019.9 1 68
2019-12-06 22:00:00 14.8 5 Norte 15 Noroeste 0 1019.6 1.3 65
2019-12-06 21:00:00 15.4 7 Noroeste 14 Noroeste 0 1019.2 1.4 64
2019-12-06 20:00:00 15.1 4 Noroeste 9 Noroeste 0 1018.9 1.3 62
2019-12-06 19:00:00 14.7 0 Calma 4 Noroeste 0 1018.3 1 58
2019-12-06 18:00:00 17.4 0 Calma 7 Oeste 0 1017.8 0.3 50
2019-12-06 17:00:00 20.1 4 Sudeste 10 Sudeste 0 1017.6 -0.4 41
2019-12-06 16:00:00 21.5 6 Sudeste 17 Este 0 1017.3 -1.5 40
2019-12-06 15:00:00 21.2 10 Este 21 Sudeste 0 1017.5 -1.6 39
2019-12-06 14:00:00 20.7 8 Este 17 Este 0 1018 -1 41
2019-12-06 13:00:00 19.2 7 Nordeste 17 Nordeste 0 1018.8 0 44
2019-12-06 12:00:00 18.5 9 Este 17 Este 0 1019.1 0.7 47
2019-12-06 11:00:00 15.3 3 Norte 12 Norte 0 1019 1.3 61
2019-12-06 10:00:00 12.3 5 Norte 14 Noroeste 0 1018.8 1.6 72
2019-12-06 09:00:00 10.6 5 Norte 15 Noroeste 0 1018.4 1.9 78
2019-12-06 08:00:00 10.4 3 Norte 19 Noroeste 0 1017.7 1.3 78
2019-12-06 07:00:00 10.7 8 Norte 16 Noroeste 0 1017.2 1.1 77
2019-12-06 06:00:00 10.9 9 Norte 22 Noroeste 0 1016.5 0.6 76
2019-12-06 05:00:00 11 5 Norte 12 Norte 0 1016.4 0.6 77
2019-12-06 04:00:00 10.8 3 Norte 6 Norte 0 1016.1 0.5 77
2019-12-06 03:00:00 11.4 3 Norte 8 Norte 0 1015.9 -0.2 74
2019-12-06 02:00:00 11.7 0 Calma 10 Este 0 1015.8 -0.1 71
2019-12-06 01:00:00 12.3 2 Nordeste 9 Norte 0 1015.6 0 67
2019-12-06 00:00:00 12.6 0 Calma 10 Nordeste 0 1016.1 1.2 66
2019-12-05 23:00:00 11.8 2 Norte 11 Nordeste 0 1015.9 1.6 66
2019-12-05 22:00:00 12.8 3 Nordeste 12 Nordeste 0 1015.6 1.8 63
2019-12-05 21:00:00 13 2 Nordeste 10 Este 0 1014.9 1.6 63
2019-12-05 20:00:00 14.7 3 Nordeste 8 Nordeste 0 1014.3 1.6 59
2019-12-05 19:00:00 15.7 0 Calma 6 Este 0 1013.8 1.3 59
2019-12-05 18:00:00 17 2 Este 13 Sudeste 0 1013.3 1.1 54
2019-12-05 17:00:00 17.6 4 Sudeste 17 Este 0 1012.7 -0.2 52
2019-12-05 16:00:00 18.2 10 Este 17 Este 0 1012.5 -0.9 49
2019-12-05 15:00:00 18.5 10 Este 22 Este 0 1012.2 -1.9 46
2019-12-05 14:00:00 19 8 Este 22 Este 0 1012.9 -1.1 46
2019-12-05 13:00:00 17.9 8 Este 19 Este 0 1013.4 -0.1 51
2019-12-05 12:00:00 16.7 9 Nordeste 15 Nordeste 0 1014.1 1.2 55
2019-12-05 11:00:00 14 5 Norte 14 Norte 0 1014 2 67
2019-12-05 10:00:00 11.5 6 Norte 15 Norte 0 1013.5 1.8 78
2019-12-05 09:00:00 9.8 4 Noroeste 12 Noroeste 0 1012.9 1.7 86
2019-12-05 08:00:00 8.9 0 Calma 11 Norte 0 1012 1.1 87
2019-12-05 07:00:00 8.5 2 Norte 10 Nordeste 0 1011.7 1 85
2019-12-05 06:00:00 9.4 4 Nordeste 10 Norte 0 1011.2 0.6 83
2019-12-05 05:00:00 9.7 6 Norte 16 Noroeste 0 1010.9 0.4 82
2019-12-05 04:00:00 9.7 6 Norte 16 Norte 0 1010.7 0.1 81
2019-12-05 03:00:00 9.6 4 Norte 17 Noroeste 0 1010.6 0.3 81
2019-12-05 02:00:00 9.5 4 Norte 17 Noroeste 0 1010.5 0.3 79
2019-12-05 01:00:00 10.1 7 Norte 16 Norte 0 1010.6 0.6 76
2019-12-05 00:00:00 10.1 5 Norte 14 Norte 0 1010.3 0.6 72
2019-12-04 23:00:00 10 4 Norte 11 Norte 0 1010.2 0.9 69
2019-12-04 22:00:00 10.5 3 Noroeste 15 Norte 0 1010 1.4 63
2019-12-04 21:00:00 11.3 5 Noroeste 13 Noroeste 0 1009.7 1.5 61
2019-12-04 20:00:00 11.7 4 Norte 10 Norte 0 1009.3 1.4 56
2019-12-04 19:00:00 12.4 4 Noroeste 9 Noroeste 0 1008.6 0.9 52
2019-12-04 18:00:00 14.1 3 Noroeste 15 Noroeste 0 1008.2 0.3 47
2019-12-04 17:00:00 15 6 Noroeste 12 Norte 0 1007.9 -0.7 44
2019-12-04 16:00:00 15.5 7 Norte 15 Noroeste 0 1007.7 -1.7 44
2019-12-04 15:00:00 16.1 3 Oeste 19 Sudoeste 0 1007.9 -2.1 47
2019-12-04 14:00:00 15.3 11 Sudoeste 17 Sudoeste 0 1008.6 -2 46
2019-12-04 13:00:00 15.4 7 Noroeste 21 Noroeste 0 1009.4 -0.7 46
2019-12-04 12:00:00 14.5 8 Noroeste 19 Noroeste 0 1010 0.5 51
2019-12-04 11:00:00 12.8 5 Noroeste 15 Noroeste 0 1010.6 1.2 62
2019-12-04 10:00:00 10.1 6 Noroeste 16 Norte 0 1010.1 0.7 71
2019-12-04 09:00:00 9.1 3 Nordeste 13 Norte 0 1009.5 0.3 75
2019-12-04 08:00:00 9 3 Nordeste 10 Norte 0 1009.4 -0.4 72
2019-12-04 07:00:00 10.4 2 Nordeste 19 Noroeste 0 1009.4 -0.4 68
2019-12-04 06:00:00 11 8 Noroeste 20 Norte 0 1009.2 -1 69
2019-12-04 05:00:00 10.6 5 Noroeste 12 Noroeste 0 1009.8 -1 75
2019-12-04 04:00:00 11.1 5 Noroeste 12 Norte 0 1009.8 -1.3 72
2019-12-04 03:00:00 11.9 6 Noroeste 15 Norte 0 1010.2 -1.1 68
2019-12-04 02:00:00 11.8 8 Noroeste 17 Norte 0 1010.8 -0.5 67
2019-12-04 01:00:00 12.3 8 Norte 18 Noroeste 0 1011.1 0.2 66
2019-12-04 00:00:00 12.5 7 Noroeste 18 Norte 0 1011.3 0.7 65
2019-12-03 23:00:00 13 6 Noroeste 18 Norte 0 1011.3 1.2 66
2019-12-03 22:00:00 13.5 8 Noroeste 18 Norte 0 1010.9 1.2 64
2019-12-03 21:00:00 14 6 Noroeste 16 Norte 0 1010.6 1 62
2019-12-03 20:00:00 14.7 7 Noroeste 13 Noroeste 0 1010.1 0.7 61
2019-12-03 19:00:00 15 4 Noroeste 9 Noroeste 0 1009.7 0.5 59
2019-12-03 18:00:00 16.7 3 Noroeste 14 Norte 0 1009.6 0.4 53
2019-12-03 17:00:00 17.9 8 Noroeste 16 Noroeste 0 1009.4 -0.3 48
2019-12-03 16:00:00 19 6 Noroeste 15 Norte 0 1009.2 -1.3 46
2019-12-03 15:00:00 18.9 7 Noroeste 18 Noroeste 0 1009.2 -2.1 47
2019-12-03 14:00:00 17.7 7 Norte 19 Noroeste 0 1009.7 -1.9 49
2019-12-03 13:00:00 16.5 10 Noroeste 23 Noroeste 0 1010.5 -1 54
2019-12-03 12:00:00 14.8 10 Norte 21 Noroeste 0 1011.3 0.3 60
2019-12-03 11:00:00 13.6 7 Noroeste 21 Norte 0 1011.6 0.9 65
2019-12-03 10:00:00 12.1 9 Norte 25 Norte 0 1011.5 1.3 72
2019-12-03 09:00:00 11 8 Noroeste 22 Norte 0 1011 0.7 78
2019-12-03 08:00:00 10.8 10 Noroeste 18 Noroeste 0 1010.7 0.1 78
2019-12-03 07:00:00 10.8 10 Norte 21 Noroeste 0 1010.2 -0.8 79
2019-12-03 06:00:00 10.8 3 Norte 13 Norte 0 1010.3 -0.7 78
2019-12-03 05:00:00 11.4 2 Nordeste 14 Norte 0 1010.6 -0.2 78
2019-12-03 04:00:00 11.3 6 Norte 15 Noroeste 0 1011 -0.3 78
2019-12-03 03:00:00 11.3 4 Norte 13 Norte 0 1011 -0.2 76
2019-12-03 02:00:00 12 3 Norte 14 Norte 0 1010.8 -0.2 74
2019-12-03 01:00:00 12.1 3 Norte 12 Norte 0 1011.3 0.4 75
2019-12-03 00:00:00 12 2 Nordeste 9 Nordeste 0 1011.2 0.7 75
2019-12-02 23:00:00 12.9 4 Nordeste 13 Nordeste 0 1011 1.4 72
2019-12-02 22:00:00 13.3 3 Nordeste 15 Nordeste 0 1010.9 1.8 71
2019-12-02 21:00:00 14 3 Nordeste 9 Nordeste 0.1 1010.5 2 71
2019-12-02 20:00:00 14.5 2 Nordeste 22 Nordeste 0 1009.6 1.7 70
2019-12-02 19:00:00 15.2 7 Nordeste 19 Nordeste 0 1009.1 1.7 64
2019-12-02 18:00:00 15.8 9 Nordeste 23 Nordeste 0 1008.5 1.2 60
2019-12-02 17:00:00 16 3 Nordeste 19 Este 0 1007.9 0.2 66
2019-12-02 16:00:00 16.2 3 Nordeste 17 Nordeste 0 1007.4 -1.1 69
2019-12-02 15:00:00 15.5 9 Nordeste 31 Nordeste 0.3 1007.3 -1.8 69
2019-12-02 14:00:00 16.4 8 Este 24 Este 0 1007.7 -1.5 60
2019-12-02 13:00:00 15.3 9 Nordeste 24 Este 0 1008.5 0.1 63
2019-12-02 12:00:00 14.5 7 Nordeste 23 Nordeste 0 1009.1 1.2 63
2019-12-02 11:00:00 13.9 4 Norte 19 Noroeste 0 1009.2 1.6 68
2019-12-02 10:00:00 13.7 7 Norte 23 Norte 0 1008.4 0.9 70
2019-12-02 09:00:00 12.3 4 Norte 21 Norte 0 1007.9 0.5 76
2019-12-02 08:00:00 11.9 6 Norte 22 Noroeste 0 1007.6 0.2 76
2019-12-02 07:00:00 11.9 9 Noroeste 23 Noroeste 0 1007.5 -0.1 76
2019-12-02 06:00:00 11.7 10 Noroeste 31 Noroeste 0 1007.4 -0.4 77
2019-12-02 05:00:00 11.8 13 Noroeste 32 Norte 0 1007.4 -0.6 76
2019-12-02 04:00:00 12.1 12 Noroeste 28 Noroeste 0 1007.6 -0.8 76
2019-12-02 03:00:00 12.7 12 Noroeste 27 Noroeste 0 1007.8 -0.8 74
2019-12-02 02:00:00 13.7 9 Norte 23 Noroeste 0 1008 -0.9 70
2019-12-02 01:00:00 14.1 6 Noroeste 19 Noroeste 0 1008.4 -0.8 71
2019-12-02 00:00:00 14.4 8 Noroeste 24 Noroeste 0 1008.6 -0.7 69
2019-12-01 23:00:00 14.6 8 Noroeste 21 Noroeste 0 1008.9 -0.7 68
2019-12-01 22:00:00 14.4 6 Noroeste 16 Noroeste 0 1009.2 -0.3 68
2019-12-01 21:00:00 14.4 6 Oeste 18 Oeste 0 1009.3 -0.1 70
2019-12-01 20:00:00 15 8 Oeste 17 Oeste 0 1009.6 -0.1 67
2019-12-01 19:00:00 15 9 Oeste 22 Oeste 0 1009.5 -0.6 64
2019-12-01 18:00:00 16 8 Noroeste 30 Noroeste 0 1009.4 -1.3 54
2019-12-01 17:00:00 17.2 12 Noroeste 30 Noroeste 0 1009.7 -1.9 49
2019-12-01 16:00:00 17.5 12 Oeste 28 Noroeste 0 1010.1 -2.8 51
2019-12-01 15:00:00 18.5 13 Oeste 25 Noroeste 0 1010.7 -2.8 53
2019-12-01 14:00:00 17.3 8 Oeste 15 Oeste 0.1 1011.6 -2.7 69
2019-12-01 13:00:00 15 4 Oeste 26 Oeste 2.8 1012.9 -1.4 84
2019-12-01 12:00:00 16.5 13 Sudoeste 22 Sudoeste 0 1013.5 -0.7 69
2019-12-01 11:00:00 15.1 8 Sudoeste 17 Oeste 0 1014.3 -0.1 81
2019-12-01 10:00:00 13.4 8 Oeste 21 Sudoeste 0.1 1014.3 -0.1 90
2019-12-01 09:00:00 12.3 4 Oeste 9 Sudoeste 0 1014.2 -0.8 92
2019-12-01 08:00:00 12 3 Oeste 9 Oeste 0 1014.4 -1.2 92
2019-12-01 07:00:00 10.9 4 Oeste 8 Oeste 0 1014.4 -1.4 91
2019-12-01 06:00:00 11 5 Oeste 8 Oeste 0 1015 -1.5 91
2019-12-01 05:00:00 11.4 4 Noroeste 9 Noroeste 0 1015.6 -1.2 90
2019-12-01 04:00:00 11.8 2 Oeste 6 Oeste 0 1015.8 -1.9 89
2019-12-01 03:00:00 13 3 Noroeste 6 Norte 0 1016.5 -1.5 88
2019-12-01 02:00:00 13.8 0 Calma 6 Noroeste 0 1016.8 -1.5 87
2019-12-01 01:00:00 15.4 0 Calma 5 Noroeste 0 1017.7 -0.8 89
2019-12-01 00:00:00 15.8 0 Calma 2 Sur 0 1018 -0.7 88
2019-11-30 23:00:00 15.9 0 Calma 6 Norte 0 1018.3 -0.4 86
2019-11-30 22:00:00 16.5 2 Oeste 13 Noroeste 0.2 1018.5 -0.2 85
2019-11-30 21:00:00 16.7 8 Oeste 18 Sudoeste 0 1018.7 0 83
2019-11-30 20:00:00 16.2 9 Sudoeste 17 Oeste 0 1018.7 0 82
2019-11-30 19:00:00 17.1 9 Sudoeste 24 Sudoeste 0 1018.7 -0.4 75
2019-11-30 18:00:00 17.2 13 Sudoeste 23 Oeste 0 1018.7 -1.1 68
2019-11-30 17:00:00 17.7 12 Sudoeste 23 Sudoeste 0 1018.7 -2.1 66
2019-11-30 16:00:00 17.7 13 Sudoeste 19 Sudoeste 0 1019.1 -2.3 71
2019-11-30 15:00:00 17.7 8 Sudoeste 17 Sudoeste 0 1019.8 -2.3 70
2019-11-30 14:00:00 17.7 9 Sudoeste 15 Sudoeste 0 1020.8 -1.3 65
2019-11-30 13:00:00 19 6 Sudoeste 11 Sudoeste 0 1021.4 -0.5 65
2019-11-30 12:00:00 17.8 0 Calma 6 Oeste 0 1022.1 0.6 70
2019-11-30 11:00:00 15.6 2 Este 8 Norte 0 1022.1 0.7 76
2019-11-30 10:00:00 13.6 5 Noroeste 10 Norte 0 1021.9 0.8 82
2019-11-30 09:00:00 12.3 4 Norte 9 Noroeste 0 1021.5 0.3 89
2019-11-30 08:00:00 11.4 2 Noroeste 8 Norte 0 1021.4 0.2 88
2019-11-30 07:00:00 11.8 0 Calma 8 Norte 0 1021.1 0 87
2019-11-30 06:00:00 12.4 2 Norte 10 Noroeste 0 1021.2 0.2 85
2019-11-30 05:00:00 12.7 0 Calma 9 Noroeste 0 1021.2 -0.3 85
2019-11-30 04:00:00 12.4 5 Norte 10 Noroeste 0 1021.1 -0.7 85
2019-11-30 03:00:00 12.7 4 Norte 9 Norte 0 1021 -0.4 81
2019-11-30 02:00:00 13.4 4 Norte 12 Norte 0 1021.5 0.1 80
2019-11-30 01:00:00 13.8 4 Norte 12 Noroeste 0 1021.8 0.7 81
2019-11-30 00:00:00 13.5 4 Norte 10 Norte 0 1021.4 0.1 87
2019-11-29 23:00:00 13.5 5 Noroeste 11 Norte 0 1021.4 0 89
2019-11-29 22:00:00 13.9 3 Noroeste 6 Noroeste 0 1021.1 -0.2 87
2019-11-29 21:00:00 14.4 0 Calma 6 Oeste 0 1021.3 0.3 84
2019-11-29 20:00:00 14.7 3 Oeste 5 Sudoeste 0 1021.4 0.5 82
2019-11-29 19:00:00 15.3 0 Calma 5 Sudoeste 0 1021.3 0.5 76
2019-11-29 18:00:00 16.7 0 Calma 8 Sudoeste 0 1021 0 70
2019-11-29 17:00:00 17.4 5 Sur 12 Sudoeste 0 1020.9 -0.8 66
2019-11-29 16:00:00 19.1 6 Sudoeste 12 Sudoeste 0 1020.8 -1.6 59
2019-11-29 15:00:00 18.8 7 Sur 13 Sur 0 1021 -1.8 58
2019-11-29 14:00:00 18.9 7 Sur 13 Sur 0 1021.7 -1 59
2019-11-29 13:00:00 18.5 6 Sur 13 Sur 0 1022.4 0.4 59
2019-11-29 12:00:00 18.1 3 Este 9 Este 0 1022.8 1.4 63
2019-11-29 11:00:00 16.6 5 Este 9 Este 0 1022.7 1.9 72
2019-11-29 10:00:00 14 0 Calma 3 Nordeste 0 1022 1.7 86
2019-11-29 09:00:00 10.7 0 Calma 6 Noroeste 0 1021.4 1.3 91
2019-11-29 08:00:00 9.6 0 Calma -- -- 0 1020.8 0.7 91
2019-11-29 07:00:00 9.6 0 Calma 4 Norte 0 1020.3 0.2 91
2019-11-29 06:00:00 9.9 0 Calma 4 Norte 0 1020.1 0.2 91
2019-11-29 05:00:00 10.1 0 Calma 0 Calma 0 1020.1 0.4 91
2019-11-29 04:00:00 10.4 0 Calma -- -- 0 1020.1 0.3 91
2019-11-29 03:00:00 11.8 0 Calma 5 Nordeste 0 1019.9 0 91
2019-11-29 02:00:00 12.2 0 Calma -- -- 0 1019.7 -0.2 91
2019-11-29 01:00:00 12.6 0 Calma 6 Norte 0 1019.8 0.2 90
2019-11-29 00:00:00 12.8 0 Calma 5 Noroeste 0 1019.9 0.8 89
2019-11-28 23:00:00 13.5 0 Calma 3 Noroeste 0 1019.9 1.2 87
2019-11-28 22:00:00 14.3 0 Calma -- -- 0 1019.6 1 87
2019-11-28 21:00:00 14.3 0 Calma 6 Sur 0 1019.1 0.7 87
2019-11-28 20:00:00 15 3 Sur 5 Sur 0 1018.7 0.5 85
2019-11-28 19:00:00 16.2 0 Calma 6 Sur 0 1018.6 0.6 81
2019-11-28 18:00:00 16.4 4 Sudoeste 13 Sur 0 1018.4 0.3 78
2019-11-28 17:00:00 17.4 8 Sur 14 Sur 0 1018.2 -0.4 65
2019-11-28 16:00:00 18.4 8 Sur 15 Sur 0 1018 -1.5 59
2019-11-28 15:00:00 18.9 7 Sur 13 Sur 0 1018.1 -1.7 56
2019-11-28 14:00:00 19.1 7 Sur 14 Sur 0 1018.6 -1.3 56
2019-11-28 13:00:00 18.2 5 Sur 12 Sur 0 1019.5 0.3 61
2019-11-28 12:00:00 18.3 3 Sudeste 8 Sudeste 0 1019.8 1 63
2019-11-28 11:00:00 16.8 0 Calma 6 Este 0 1019.9 1.6 75
2019-11-28 10:00:00 13.2 0 Calma 6 Norte 0 1019.2 1.4 90
2019-11-28 09:00:00 10.4 0 Calma -- -- 0 1018.8 1.5 92
2019-11-28 08:00:00 9.4 0 Calma -- -- 0 1018.3 0.8 91
2019-11-28 07:00:00 9.4 0 Calma -- -- 0 1017.8 0.6 91
2019-11-28 06:00:00 9.6 0 Calma -- -- 0 1017.3 0.1 91
2019-11-28 05:00:00 10.1 0 Calma 2 Noroeste 0 1017.5 0.1 90
2019-11-28 04:00:00 10.2 0 Calma 4 Noroeste 0 1017.2 -0.2 90
2019-11-28 03:00:00 10.7 0 Calma -- -- 0 1017.2 -0.3 90
2019-11-28 02:00:00 11.2 0 Calma -- -- 0 1017.4 0 90
2019-11-28 01:00:00 12.1 0 Calma 5 Noroeste 0 1017.4 0.1 90
2019-11-28 00:00:00 12.3 0 Calma 2 Sur 0 1017.5 0.6 89
2019-11-27 23:00:00 13.1 0 Calma 8 Sur 0 1017.4 1.2 89
2019-11-27 22:00:00 13.9 0 Calma 6 Sur 0 1017.3 1.5 88
2019-11-27 21:00:00 15 3 Noroeste 5 Noroeste 0 1016.9 1.5 88
2019-11-27 20:00:00 14.9 2 Noroeste 5 Oeste 0 1016.2 1.1 84
2019-11-27 19:00:00 15.9 0 Calma 7 Sudoeste 0 1015.8 0.9 83
2019-11-27 18:00:00 16.7 3 Sur 8 Sur 0 1015.4 -0.2 79
2019-11-27 17:00:00 17 5 Sur 10 Sur 0 1015.1 -0.6 76
2019-11-27 16:00:00 17.8 6 Sudoeste 12 Sudoeste 0.1 1014.9 -1.4 73
2019-11-27 15:00:00 17.3 0 Calma 8 Sudoeste 0 1015.6 -1.4 78
2019-11-27 14:00:00 17.5 3 Sudoeste 9 Oeste 0 1015.7 -1.3 75
2019-11-27 06:00:00 13.4 0 Calma 10 Oeste 0 1013.9 -0.1 91
2019-11-27 05:00:00 14.3 4 Oeste 11 Oeste 0 1013.9 -0.5 91
2019-11-27 04:00:00 14.6 6 Oeste 12 Sudoeste 0 1014.1 -0.6 91
2019-11-27 03:00:00 14.8 6 Sudoeste 12 Oeste 0 1014 -0.6 91
2019-11-27 02:00:00 15 5 Oeste 11 Oeste 0.1 1014.4 0.1 90
2019-11-27 01:00:00 14.9 3 Sudoeste 7 Sudoeste 0 1014.7 0.5 90
2019-11-27 00:00:00 16.3 4 Oeste 13 Sudoeste 0 1014.6 0.7 89
2019-11-26 23:00:00 17.3 3 Sudoeste 10 Oeste 0.1 1014.3 0.6 90
2019-11-26 22:00:00 17.6 6 Oeste 22 Sudoeste 0.4 1014.2 0.4 90
2019-11-26 21:00:00 17.8 10 Oeste 22 Sudoeste 0 1013.9 0.5 86
2019-11-26 20:00:00 17.7 9 Sudoeste 20 Sudoeste 0 1013.7 0.1 85
2019-11-26 19:00:00 17.9 11 Sudoeste 23 Oeste 0 1013.8 0.2 84
2019-11-26 18:00:00 17.9 15 Sudoeste 31 Sudoeste 0 1013.4 -0.8 82
2019-11-26 17:00:00 18.8 14 Sudoeste 28 Sudoeste 0 1013.6 -0.8 77
2019-11-26 16:00:00 20.1 17 Sudoeste 30 Sudoeste 0 1013.6 -1.7 72
2019-11-26 15:00:00 20.7 15 Sudoeste 26 Sudoeste 0 1014.2 -2 71
2019-11-26 14:00:00 20.8 12 Sudoeste 21 Sudoeste 0 1014.4 -2.1 71
2019-11-26 13:00:00 20.4 10 Sudoeste 17 Sudoeste 0 1015.3 -0.9 77
2019-11-26 12:00:00 18.2 8 Sudoeste 14 Sudoeste 0 1016.2 0.1 91
2019-11-26 11:00:00 17.3 8 Sudoeste 15 Sudoeste 0 1016.5 0.7 91
2019-11-26 10:00:00 16.6 4 Sudoeste 14 Sudoeste 0 1016.2 0.5 92
2019-11-26 09:00:00 16.7 7 Sudoeste 13 Sudoeste 0 1016.1 0.3 92
2019-11-26 08:00:00 16.1 8 Sudoeste 14 Sudoeste 0 1015.8 -0.1 92
2019-11-26 07:00:00 16.7 8 Sudoeste 14 Sudoeste 0 1015.7 -0.7 92
2019-11-26 06:00:00 16.6 6 Sudoeste 12 Sudoeste 0.1 1015.8 -0.8 92
2019-11-26 05:00:00 16.7 4 Sudoeste 8 Sudoeste 0 1015.9 -1.3 91
2019-11-26 04:00:00 16.4 5 Sudoeste 14 Sudoeste 0 1016.4 -1.1 90
2019-11-26 03:00:00 16.4 8 Oeste 15 Sudoeste 0 1016.6 -1.3 90
2019-11-26 02:00:00 16.4 0 Calma 6 Oeste 0 1017.2 -0.7 89
2019-11-26 01:00:00 16.5 0 Calma 6 Oeste 0 1017.5 -0.4 89
2019-11-26 00:00:00 16.3 3 Sur 6 Sur 0 1017.9 0.3 89
2019-11-25 23:00:00 16.8 0 Calma 10 Oeste 0 1017.9 0.9 89
2019-11-25 22:00:00 16.5 5 Oeste 9 Oeste 0 1017.9 1.1 89
2019-11-25 21:00:00 16.7 0 Calma 10 Oeste 0 1017.6 1 86
2019-11-25 20:00:00 17.4 5 Oeste 11 Oeste 0 1017 0.6 84
2019-11-25 19:00:00 18.6 6 Oeste 19 Sudoeste 0 1016.8 0.5 82
2019-11-25 18:00:00 18.7 9 Oeste 16 Oeste 0 1016.6 0.2 78
2019-11-25 17:00:00 19.1 11 Oeste 20 Sudoeste 0 1016.4 -0.6 77
2019-11-25 16:00:00 20.1 10 Sudoeste 19 Oeste 0 1016.3 -1.2 72
2019-11-25 15:00:00 21.5 11 Sudoeste 27 Sudoeste 0 1016.4 -1.6 70
2019-11-25 14:00:00 21 14 Oeste 34 Oeste 0 1017 -0.8 72
2019-11-25 13:00:00 20.6 19 Oeste 32 Oeste 0 1017.5 0.1 74
2019-11-25 12:00:00 19.6 16 Oeste 30 Oeste 0 1018 0.9 79
2019-11-25 11:00:00 19.6 13 Oeste 28 Oeste 0 1017.8 0.8 79
2019-11-25 10:00:00 18.2 15 Oeste 27 Oeste 0 1017.4 0.5 87
2019-11-25 09:00:00 16.6 10 Oeste 19 Oeste 0 1017.1 0.4 90
2019-11-25 08:00:00 15.6 6 Sudoeste 14 Sudoeste 0 1017 0 89
2019-11-25 07:00:00 15.8 8 Sudoeste 12 Sudoeste 0 1016.9 -0.4 89
2019-11-25 06:00:00 15.2 6 Sudoeste 8 Sur 0 1016.7 -0.7 87
2019-11-25 05:00:00 15.6 0 Calma 2 Nordeste 0 1017 -0.8 86
2019-11-25 04:00:00 15.6 0 Calma 12 Sudoeste 0 1017.3 -1 83
2019-11-25 03:00:00 15.9 9 Sudoeste 21 Oeste 0 1017.4 -1 83
2019-11-25 02:00:00 16.3 10 Oeste 21 Oeste 0 1017.8 -0.5 79
2019-11-25 01:00:00 15.2 0 Calma 9 Sur 0 1018.3 0 84
2019-11-25 00:00:00 15.1 4 Sudoeste 7 Sur 0 1018.4 0.2 83
2019-11-24 23:00:00 15 3 Sudoeste 9 Sur 0 1018.3 0.5 85
2019-11-24 22:00:00 14.5 5 Sudoeste 14 Sudoeste 0 1018.3 0.7 83
2019-11-24 21:00:00 15.1 9 Oeste 18 Sudoeste 0 1018.2 0.9 80
2019-11-24 20:00:00 15.4 8 Sudoeste 23 Sudoeste 0 1017.8 0.7 76
2019-11-24 19:00:00 16.2 10 Sudoeste 23 Oeste 0 1017.6 0.6 72
2019-11-24 18:00:00 16.3 13 Oeste 24 Oeste 0 1017.3 -0.2 69
2019-11-24 17:00:00 17.3 14 Sudoeste 27 Sudoeste 0 1017.1 -1 65
2019-11-24 16:00:00 17.9 12 Sudoeste 19 Sudoeste 0 1017 -1.7 65
2019-11-24 15:00:00 16.8 9 Sur 15 Sur 0 1017.5 -1.9 66
2019-11-24 14:00:00 17.3 8 Sur 15 Sur 0 1018.1 -1.3 60
2019-11-24 13:00:00 17.3 8 Sudoeste 13 Sudoeste 0 1018.7 -0.1 55
2019-11-24 12:00:00 16.9 6 Sur 13 Sudoeste 0 1019.4 1 56
2019-11-24 11:00:00 13.7 0 Calma 6 Noroeste 0 1019.4 1.6 75
2019-11-24 10:00:00 11.4 3 Noroeste 6 Noroeste 0 1018.8 1.7 89
2019-11-24 09:00:00 8.9 0 Calma 5 Sur 0 1018.4 1.5 91
2019-11-24 08:00:00 8.3 0 Calma 5 Noroeste 0 1017.8 1.1 91
2019-11-24 07:00:00 8 0 Calma -- -- 0 1017.1 0.6 89
2019-11-24 06:00:00 8.9 0 Calma 6 Noroeste 0 1016.9 0.6 89
2019-11-24 05:00:00 9.5 4 Noroeste 7 Noroeste 0 1016.7 0.5 89
2019-11-24 04:00:00 10.2 3 Noroeste 6 Noroeste 0 1016.5 0.4 86
2019-11-24 03:00:00 10.6 3 Noroeste 10 Noroeste 0 1016.3 0.4 83
2019-11-24 02:00:00 10.8 4 Noroeste 9 Noroeste 0 1016.2 0 81
2019-11-24 01:00:00 12.3 2 Noroeste 13 Noroeste 0 1016.1 0.2 74
2019-11-24 00:00:00 12.8 5 Noroeste 13 Noroeste 0 1015.9 0.6 73
2019-11-23 23:00:00 11.9 4 Noroeste 8 Noroeste 0 1016.2 1.8 75
2019-11-23 22:00:00 12.2 0 Calma 10 Norte 0 1015.9 2.3 71
2019-11-23 21:00:00 12.8 3 Noroeste 9 Noroeste 0 1015.3 2.8 64
2019-11-23 20:00:00 13.9 4 Noroeste 10 Noroeste 0 1014.4 2.7 57
2019-11-23 19:00:00 15.3 5 Noroeste 12 Noroeste 0 1013.6 2.7 51
2019-11-23 18:00:00 17.1 8 Norte 24 Noroeste 0 1012.5 1.9 44
2019-11-23 17:00:00 18.2 9 Noroeste 25 Noroeste 0 1011.7 0.8 41
2019-11-23 16:00:00 18.7 12 Noroeste 29 Noroeste 0 1010.9 -0.3 39
2019-11-23 15:00:00 18.8 12 Noroeste 30 Noroeste 0 1010.6 -0.6 40
2019-11-23 14:00:00 18.7 13 Noroeste 30 Noroeste 0 1010.9 0.3 44
2019-11-23 13:00:00 18.8 12 Noroeste 32 Noroeste 0 1011.2 1.7 46
2019-11-23 12:00:00 17.7 12 Noroeste 30 Noroeste 0 1011.2 3.2 50
2019-11-23 11:00:00 16.5 12 Noroeste 27 Noroeste 0 1010.6 3.3 56
2019-11-23 10:00:00 15.6 9 Noroeste 22 Noroeste 0 1009.5 3.5 61
2019-11-23 09:00:00 14.3 8 Noroeste 21 Noroeste 0 1008 2.6 69
2019-11-23 08:00:00 14.3 10 Noroeste 21 Oeste 0 1007.3 2.2 68
2019-11-23 07:00:00 14.5 8 Noroeste 23 Noroeste 0 1006 1.9 71
2019-11-23 06:00:00 14.5 9 Noroeste 22 Noroeste 0 1005.4 1.8 77
2019-11-23 05:00:00 14.4 10 Noroeste 29 Noroeste 0 1005.1 1.8 76
2019-11-23 04:00:00 15.5 14 Oeste 26 Oeste 0 1004.1 1.1 68
2019-11-23 03:00:00 15 10 Oeste 24 Oeste 0 1003.6 0.6 67
2019-11-23 02:00:00 15.4 13 Oeste 24 Sudoeste 0 1003.3 0.7 67
2019-11-23 01:00:00 15.2 11 Oeste 29 Oeste 0 1003 0.8 67
2019-11-23 00:00:00 15.8 12 Oeste 24 Oeste 0 1003 1.7 67
2019-11-22 23:00:00 15.8 12 Noroeste 26 Noroeste 0 1002.6 1.8 73
2019-11-22 22:00:00 14.3 9 Oeste 17 Sudoeste 0 1002.2 2.4 80
2019-11-22 21:00:00 14.4 6 Sudoeste 21 Oeste 0 1001.3 1.9 76
2019-11-22 20:00:00 15.8 10 Oeste 17 Oeste 0 1000.8 2.4 74
2019-11-22 19:00:00 15.8 6 Oeste 22 Noroeste 0 999.8 2 79
2019-11-22 18:00:00 17.3 11 Noroeste 36 Noroeste 3 999.4 1.5 77
2019-11-22 17:00:00 18.4 20 Oeste 43 Sudoeste 1.2 998.4 -0.2 89
2019-11-22 16:00:00 17.9 21 Sudoeste 43 Oeste 0 997.8 -1.9 86
2019-11-22 15:00:00 18.1 24 Sudoeste 43 Sudoeste 0 997.9 -3.2 85
2019-11-22 14:00:00 18.1 22 Sudoeste 49 Sudoeste 0.1 998.6 -3.1 88
2019-11-22 13:00:00 17.8 25 Sudoeste 43 Sudoeste 0 999.7 -2.1 88
2019-11-22 12:00:00 18 22 Sudoeste 40 Sudoeste 0 1001.1 -1.4 88
2019-11-22 11:00:00 17.1 20 Sudoeste 37 Sudoeste 0.4 1001.7 -0.7 92
2019-11-22 10:00:00 16.2 16 Sudoeste 24 Sudoeste 1.8 1001.8 -1.8 92
2019-11-22 09:00:00 16 10 Sudoeste 24 Oeste 0 1002.5 -1.7 93
2019-11-22 08:00:00 15.2 2 Sur 15 Sudeste 0.1 1002.4 -2.6 93
2019-11-22 07:00:00 14.2 3 Sudeste 12 Oeste 0 1003.6 -1.9 93
2019-11-22 06:00:00 13.3 3 Este 9 Este 0.1 1004.2 -1.4 93
2019-11-22 05:00:00 13 3 Noroeste 7 Noroeste 0 1005 -1.2 93
2019-11-22 04:00:00 12.7 0 Calma 4 Este 0 1005.5 -1.1 93
2019-11-22 03:00:00 12.3 0 Calma -- -- 0 1005.6 -1.2 93
2019-11-22 02:00:00 12 0 Calma 4 Noroeste 0.1 1006.2 -1.2 93
2019-11-22 01:00:00 12 0 Calma -- -- 0 1006.6 -1.1 93
2019-11-22 00:00:00 11.3 0 Calma -- -- 0 1006.8 -1 91
2019-11-21 23:00:00 11.8 0 Calma -- -- 0 1007.4 -0.4 91
2019-11-21 22:00:00 12.6 0 Calma 3 Sur 0 1007.7 0.6 90
2019-11-21 21:00:00 12.9 0 Calma 2 Oeste 0 1007.8 1.1 90
2019-11-21 20:00:00 13.7 0 Calma 5 Sudoeste 0 1007.8 1 90
2019-11-21 19:00:00 14.4 4 Sur 10 Sudeste 0 1007.1 0.4 88
2019-11-21 18:00:00 15.8 4 Sudeste 9 Sur 0 1006.7 -0.6 84
2019-11-21 17:00:00 16.6 3 Sur 6 Sudeste 0 1006.8 -0.9 85
2019-11-21 16:00:00 16.1 2 Este 6 Este 0.4 1006.7 -1.4 86
2019-11-21 15:00:00 15.2 0 Calma 14 Norte 3.3 1007.3 -1.4 85
2019-11-21 14:00:00 16.8 4 Sudoeste 10 Sudoeste 0 1007.7 -0.7 82
2019-11-21 13:00:00 17 7 Sudoeste 11 Sudoeste 0 1008.1 -0.2 81
2019-11-21 12:00:00 16.7 5 Sur 9 Sur 0.1 1008.7 0.5 85
2019-11-21 11:00:00 16.5 0 Calma 6 Este 0 1008.4 0 89
2019-11-21 10:00:00 15.3 2 Nordeste 8 Este 0 1008.3 0.2 92
2019-11-21 09:00:00 14.4 3 Sudeste 6 Este 0.2 1008.2 0.1 92
2019-11-21 08:00:00 -- -- -- -- -- -- -- -- --
2019-11-21 07:00:00 -- -- -- -- -- -- -- -- --
2019-11-21 06:00:00 -- -- -- -- -- -- -- -- --
2019-11-21 05:00:00 -- -- -- -- -- -- -- -- --
2019-11-21 04:00:00 -- -- -- -- -- -- -- -- --
2019-11-21 03:00:00 -- -- -- -- -- -- -- -- --
2019-11-21 02:00:00 -- -- -- -- -- -- -- -- --
2019-11-21 01:00:00 -- -- -- -- -- -- -- -- --
2019-11-21 00:00:00 -- -- -- -- -- -- -- -- --
2019-11-20 23:00:00 -- -- -- -- -- -- -- -- --
2019-11-20 22:00:00 13.7 4 Sudoeste 8 Sudoeste 0 1009.7 1.3 84
2019-11-20 21:00:00 15 0 Calma 5 Sudoeste 0 1009.5 1.5 81
2019-11-20 20:00:00 15.3 4 Oeste 28 Oeste 0 1009.1 1.1 74
2019-11-20 19:00:00 16.4 14 Oeste 31 Oeste 0 1008.4 0.4 68
2019-11-20 18:00:00 16.4 14 Oeste 26 Oeste 0 1008 0.1 68
2019-11-20 17:00:00 17.4 7 Sudoeste 16 Sudeste 0.1 1008 -0.3 66
2019-11-20 16:00:00 17.5 10 Sur 20 Sur 0 1008 -1 66
2019-11-20 15:00:00 18.4 9 Sur 14 Sur 0 1007.9 -2 66
2019-11-20 14:00:00 17.7 2 Este 12 Noroeste 0 1008.3 -1.6 71
2019-11-20 13:00:00 16 5 Nordeste 14 Este 0 1009 -0.9 81
2019-11-20 12:00:00 14.9 6 Este 16 Este 0 1009.9 0.1 88
2019-11-20 11:00:00 14 3 Norte 16 Sur 0.5 1009.9 0.1 89
2019-11-20 10:00:00 14.3 10 Sur 19 Sudeste 1.3 1009.9 -0.3 90
2019-11-20 09:00:00 14.2 9 Sur 20 Sur 0.9 1009.8 -1.1 86
2019-11-20 08:00:00 13.8 6 Sudeste 19 Sudeste 0.1 1009.8 -1.3 82
2019-11-20 07:00:00 13.3 6 Sudeste 16 Sudeste 0.6 1010.2 -1.9 84
2019-11-20 06:00:00 12.4 3 Este 9 Este 0 1010.9 -1.5 92
2019-11-20 05:00:00 11.8 7 Este 10 Este 0.6 1011.1 -2.1 91
2019-11-20 04:00:00 11.2 2 Norte 5 Nordeste 0 1012.1 -1.8 90
2019-11-20 03:00:00 10.8 4 Nordeste 6 Nordeste 0 1012.4 -1.8 91
2019-11-20 02:00:00 10.1 0 Calma 3 Noroeste 0 1013.2 -1.4 91
2019-11-20 01:00:00 9.8 0 Calma 5 Este 0 1013.9 -0.5 90
2019-11-20 00:00:00 9.7 3 Nordeste 5 Nordeste 0 1014.2 -0.5 90
2019-11-19 23:00:00 9.7 3 Noroeste 6 Noroeste 0 1014.6 -0.5 89
2019-11-19 22:00:00 9.9 0 Calma 3 Sudeste 0 1014.4 -0.6 85
2019-11-19 21:00:00 11.4 0 Calma 2 Nordeste 0 1014.7 -0.3 80
2019-11-19 20:00:00 12.8 0 Calma 10 Oeste 0 1015.1 0.1 73
2019-11-19 19:00:00 13.3 4 Sudoeste 9 Sudoeste 0 1015 -0.4 67
2019-11-19 18:00:00 15 5 Sudoeste 13 Sudoeste 0 1015 -0.7 63
2019-11-19 17:00:00 16.1 8 Sudoeste 14 Sudoeste 0 1015 -1.4 54
2019-11-19 16:00:00 16.8 8 Sur 14 Sur 0 1015.4 -1.8 51
2019-11-19 15:00:00 17.2 8 Sur 15 Sur 0 1015.7 -2.3 50
2019-11-19 14:00:00 15.6 8 Sur 15 Sur 0 1016.4 -2.2 53
2019-11-19 13:00:00 17.5 7 Sur 13 Sur 0 1017.2 -1.4 49
2019-11-19 12:00:00 16.6 2 Nordeste 10 Este 0 1018 -0.4 52
2019-11-19 11:00:00 13.7 2 Nordeste 9 Nordeste 0 1018.6 0.7 61
2019-11-19 10:00:00 11.7 4 Nordeste 11 Norte 0 1018.6 1.1 68
2019-11-19 09:00:00 10.2 5 Este 12 Norte 0 1018.4 1 73
2019-11-19 08:00:00 9.1 3 Norte 10 Norte 0 1017.9 0.4 75
2019-11-19 07:00:00 9.7 4 Noroeste 12 Norte 0 1017.5 0.2 73
2019-11-19 06:00:00 9.8 2 Norte 10 Norte 0 1017.4 0 72
2019-11-19 05:00:00 10.1 3 Norte 12 Norte 0 1017.5 -0.1 70
2019-11-19 04:00:00 10.5 2 Norte 14 Norte 0 1017.3 -0.9 69
2019-11-19 03:00:00 11.3 4 Norte 16 Noroeste 0 1017.4 -0.9 65
2019-11-19 02:00:00 11.4 5 Norte 14 Norte 0 1017.6 -0.8 65
2019-11-19 01:00:00 11.7 5 Norte 15 Noroeste 0 1018.2 0 65
2019-11-19 00:00:00 10.6 0 Calma 8 Noroeste 0 1018.3 0.4 69
2019-11-18 23:00:00 11.8 0 Calma 7 Noroeste 0 1018.4 1 63
2019-11-18 22:00:00 12 3 Noroeste 8 Noroeste 0 1018.2 1.6 62
2019-11-18 21:00:00 13.4 4 Oeste 13 Noroeste 0 1017.9 1.8 55
2019-11-18 20:00:00 13.4 4 Norte 13 Norte 0 1017.4 1.5 53
2019-11-18 19:00:00 14.8 4 Noroeste 9 Nordeste 0 1016.6 0.8 49
2019-11-18 18:00:00 16.9 3 Norte 16 Norte 0 1016.1 0.4 44
2019-11-18 17:00:00 18 5 Norte 18 Noroeste 0 1015.9 0 41
2019-11-18 16:00:00 18.8 4 Norte 22 Noroeste 0 1015.8 -0.7 41
2019-11-18 15:00:00 18.8 6 Norte 24 Norte 0 1015.7 -1.3 43
2019-11-18 14:00:00 18.2 8 Norte 23 Noroeste 0 1015.9 -0.7 44
2019-11-18 13:00:00 17 6 Norte 24 Noroeste 0 1016.5 0.3 46
2019-11-18 12:00:00 16.1 9 Norte 33 Norte 0 1017 1 51
2019-11-18 11:00:00 15.3 10 Norte 35 Noroeste 0 1016.6 1.5 57
2019-11-18 10:00:00 13.5 18 Noroeste 35 Noroeste 0 1016.2 1.6 66
2019-11-18 09:00:00 12.1 17 Noroeste 31 Noroeste 0 1016 1.8 71
2019-11-18 08:00:00 11.8 18 Noroeste 36 Norte 0 1015.1 1 71
2019-11-18 07:00:00 12.3 23 Norte 47 Norte 0 1014.6 0.9 70
2019-11-18 06:00:00 12 14 Noroeste 31 Noroeste 0 1014.2 0.6 71
2019-11-18 05:00:00 12.3 14 Noroeste 38 Noroeste 0 1014.1 0.3 67
2019-11-18 04:00:00 12.8 21 Noroeste 37 Norte 0 1013.7 0 62
2019-11-18 03:00:00 13.5 14 Noroeste 35 Norte 0 1013.6 0.2 59
2019-11-18 02:00:00 15.2 10 Noroeste 33 Noroeste 0 1013.8 -0.2 63
2019-11-18 01:00:00 16.6 12 Noroeste 43 Noroeste 0 1013.7 -0.9 78
2019-11-18 00:00:00 15.9 15 Oeste 27 Sudoeste 0 1013.4 -1.7 85
2019-11-17 23:00:00 16 13 Oeste 25 Oeste 0 1014 -1.4 81
2019-11-17 22:00:00 16.3 9 Sudoeste 21 Oeste 0 1014.6 -0.8 76
2019-11-17 21:00:00 16.4 9 Oeste 18 Sudoeste 0 1015.1 -0.4 74
2019-11-17 20:00:00 16.8 10 Oeste 17 Oeste 0 1015.4 0 73
2019-11-17 19:00:00 17.5 7 Oeste 22 Oeste 0 1015.4 -0.2 63
2019-11-17 18:00:00 19 11 Oeste 22 Oeste 0 1015.5 -0.7 57
2019-11-17 17:00:00 18.7 14 Sudoeste 24 Sudoeste 0 1015.4 -1.8 66
2019-11-17 16:00:00 19.3 12 Sudoeste 32 Sudoeste 0 1015.6 -2.3 68
2019-11-17 15:00:00 18.6 15 Sudoeste 28 Oeste 0 1016.2 -2.6 67
2019-11-17 14:00:00 21 16 Sudoeste 28 Sudoeste 0 1017.2 -2.1 59
2019-11-17 13:00:00 20.5 14 Sudoeste 23 Sudoeste 0 1017.9 -1.1 60
2019-11-17 12:00:00 18.4 12 Sudoeste 18 Sudoeste 0 1018.8 0 68
2019-11-17 11:00:00 16.3 10 Sudoeste 18 Oeste 0 1019.3 0.6 73
2019-11-17 10:00:00 14.1 10 Oeste 20 Sudoeste 0 1019 0.5 86
2019-11-17 09:00:00 12.3 4 Sudoeste 10 Oeste 0.1 1018.8 0 87
2019-11-17 08:00:00 11.5 2 Oeste 6 Noroeste 0 1018.7 -0.3 89
2019-11-17 07:00:00 11 0 Calma 9 Sudoeste 0.1 1018.5 -0.6 88
2019-11-17 06:00:00 10.4 6 Oeste 10 Oeste 0.1 1018.8 -0.7 84
2019-11-17 05:00:00 9.4 0 Calma -- -- 0 1019 -0.8 85
2019-11-17 04:00:00 9.2 0 Calma 4 Norte 0 1019.1 -0.9 86
2019-11-17 03:00:00 7.4 2 Noroeste 5 Noroeste 0 1019.5 -0.4 86
2019-11-17 02:00:00 6.6 0 Calma 4 Noroeste 0 1019.8 -0.1 81
2019-11-17 01:00:00 7.3 0 Calma 5 Noroeste 0 1020 0.1 75
2019-11-17 00:00:00 8.2 3 Noroeste 5 Noroeste 0 1019.9 0.4 72
2019-11-16 23:00:00 10.1 2 Noroeste 15 Noroeste 0 1019.9 1.1 61
2019-11-16 22:00:00 10.8 6 Noroeste 18 Noroeste 0 1019.9 1.4 58
2019-11-16 21:00:00 10 5 Noroeste 9 Oeste 0 1019.5 1.5 58
2019-11-16 20:00:00 10.2 2 Noroeste 6 Noroeste 0 1018.8 1 53
2019-11-16 19:00:00 12.4 4 Noroeste 9 Noroeste 0 1018.5 1 48
2019-11-16 18:00:00 14.9 0 Calma 14 Sudoeste 0 1018 0.4 52
2019-11-16 17:00:00 16 9 Sudoeste 17 Sudoeste 0 1017.8 0.3 49
2019-11-16 16:00:00 17 9 Sudoeste 22 Oeste 0 1017.5 -0.4 45
2019-11-16 15:00:00 17.3 10 Sudoeste 21 Sudoeste 0 1017.6 -0.8 44
2019-11-16 14:00:00 16.2 7 Noroeste 19 Norte 0 1017.5 -0.7 40
2019-11-16 13:00:00 14.2 9 Norte 22 Norte 0 1017.9 0.3 46
2019-11-16 12:00:00 13 10 Noroeste 19 Noroeste 0 1018.4 1.8 52
2019-11-16 11:00:00 11.3 5 Norte 19 Noroeste 0 1018.2 2.5 59
2019-11-16 10:00:00 10.4 6 Noroeste 20 Noroeste 0 1017.6 3.2 66
2019-11-16 09:00:00 8.4 8 Norte 21 Noroeste 0 1016.6 2.8 73
2019-11-16 08:00:00 7.5 5 Norte 20 Noroeste 0 1015.7 2.4 75
2019-11-16 07:00:00 7.7 10 Noroeste 26 Noroeste 0 1014.4 1.3 74
2019-11-16 06:00:00 7.9 11 Norte 26 Noroeste 0 1013.8 1.2 74
2019-11-16 05:00:00 8.5 11 Noroeste 21 Norte 0 1013.3 0.7 72
2019-11-16 04:00:00 8.5 8 Noroeste 20 Noroeste 0 1013.1 0.8 70
2019-11-16 03:00:00 9.2 7 Noroeste 15 Norte 0 1012.6 0.6 68
2019-11-16 02:00:00 9.5 5 Noroeste 21 Noroeste 0 1012.6 0.6 63
2019-11-16 01:00:00 9.6 6 Noroeste 20 Norte 0 1012.3 1.1 61
2019-11-16 00:00:00 10.3 7 Noroeste 18 Noroeste 0 1012 1.5 59
2019-11-15 23:00:00 10.7 8 Noroeste 24 Norte 0 1012 1.7 55
2019-11-15 22:00:00 11.5 10 Noroeste 28 Norte 0 1011.2 1.3 52
2019-11-15 21:00:00 12.1 10 Noroeste 23 Noroeste 0 1010.5 1.1 49
2019-11-15 20:00:00 12.6 10 Noroeste 27 Norte 0 1010.3 1.2 46
2019-11-15 19:00:00 13.5 11 Noroeste 27 Norte 0 1009.9 1.2 43
2019-11-15 18:00:00 14.1 9 Noroeste 35 Noroeste 0 1009.4 0.6 41
2019-11-15 17:00:00 15 17 Noroeste 38 Norte 0 1009.1 -0.2 39
2019-11-15 16:00:00 15.4 16 Noroeste 44 Noroeste 0 1008.7 -1.2 38
2019-11-15 15:00:00 15.6 17 Norte 44 Norte 0 1008.8 -2.4 38
2019-11-15 14:00:00 15.6 15 Norte 46 Noroeste 0 1009.3 -2.1 40
2019-11-15 13:00:00 14.7 19 Noroeste 41 Oeste 0 1009.9 -1.3 42
2019-11-15 12:00:00 14.5 20 Noroeste 39 Noroeste 0 1011.2 0.3 46
2019-11-15 11:00:00 13.1 13 Noroeste 35 Norte 0 1011.4 0.8 51
2019-11-15 10:00:00 12.5 9 Noroeste 23 Norte 0 1011.2 0.9 58
2019-11-15 09:00:00 10.3 6 Noroeste 11 Noroeste 0 1010.9 0.6 66
2019-11-15 08:00:00 10.5 2 Noroeste 20 Noroeste 0 1010.6 0.3 66
2019-11-15 07:00:00 11.3 9 Noroeste 25 Norte 0 1010.3 -0.4 65
2019-11-15 06:00:00 11.3 9 Noroeste 21 Noroeste 0 1010.3 -0.6 65
2019-11-15 05:00:00 11.1 10 Oeste 23 Oeste 0 1010.3 -1 64
2019-11-15 04:00:00 11 10 Noroeste 19 Oeste 0 1010.7 -1.2 66
2019-11-15 03:00:00 10.9 7 Noroeste 23 Oeste 0 1010.9 -0.9 66
2019-11-15 02:00:00 11.5 10 Noroeste 23 Oeste 0 1011.3 -0.4 65
2019-11-15 01:00:00 11.9 10 Noroeste 19 Oeste 0 1011.9 0.4 64
2019-11-15 00:00:00 12.4 5 Noroeste 14 Oeste 0 1011.8 0.2 66
2019-11-14 23:00:00 12.8 7 Oeste 17 Oeste 0 1011.7 0.2 64
2019-11-14 22:00:00 12.7 6 Noroeste 19 Noroeste 0 1011.5 0.2 64
2019-11-14 21:00:00 12.8 5 Noroeste 15 Noroeste 0 1011.6 0.8 65
2019-11-14 20:00:00 12.7 6 Oeste 12 Oeste 0 1011.5 0.9 68
2019-11-14 19:00:00 13.1 3 Sudoeste 17 Noroeste 0 1011.3 1.3 66
2019-11-14 18:00:00 13.8 9 Oeste 24 Noroeste 0 1010.8 0.3 63
2019-11-14 17:00:00 14.4 12 Noroeste 46 Noroeste 0.2 1010.6 -0.2 64
2019-11-14 16:00:00 17.4 12 Noroeste 32 Noroeste 0 1010 -1.6 48
2019-11-14 15:00:00 16.2 13 Noroeste 34 Noroeste 0 1010.5 -2.2 51
2019-11-14 14:00:00 16.2 17 Noroeste 50 Noroeste 0.9 1010.8 -1.7 59
2019-11-14 13:00:00 15.5 11 Noroeste 35 Norte 0.1 1011.6 -1.1 72
2019-11-14 12:00:00 14 14 Noroeste 35 Noroeste 0.7 1012.7 0.3 82
2019-11-14 11:00:00 16.7 10 Noroeste 27 Noroeste 0 1012.5 0.1 66
2019-11-14 10:00:00 15.2 12 Oeste 28 Oeste 0 1012.7 -0.1 77
2019-11-14 09:00:00 15 11 Oeste 20 Oeste 0 1012.4 -0.7 77
2019-11-14 08:00:00 13.6 10 Oeste 17 Oeste 0 1012.4 -1.1 83
2019-11-14 07:00:00 13.4 5 Sudoeste 15 Oeste 0 1012.8 -1.3 77
2019-11-14 06:00:00 13.4 9 Oeste 18 Oeste 0 1013.1 -1.9 77
2019-11-14 05:00:00 14 6 Oeste 18 Oeste 0 1013.5 -2 69
2019-11-14 04:00:00 12.7 6 Oeste 11 Sudoeste 0 1014.1 -2.1 76
2019-11-14 03:00:00 13 3 Noroeste 12 Noroeste 0 1015 -1.3 74
2019-11-14 02:00:00 13.4 5 Norte 13 Noroeste 0 1015.5 -0.7 72
2019-11-14 01:00:00 14.2 5 Noroeste 19 Noroeste 0 1016.2 -0.4 71
2019-11-14 00:00:00 15.5 8 Noroeste 17 Noroeste 0 1016.3 0.5 74
2019-11-13 23:00:00 15.9 5 Oeste 14 Noroeste 0 1016.2 0.8 77
2019-11-13 22:00:00 16.5 6 Noroeste 15 Noroeste 0 1016.6 1.3 73
2019-11-13 21:00:00 16.8 0 Calma 8 Noroeste 0 1015.8 0.8 64
2019-11-13 20:00:00 18 4 Oeste 14 Noroeste 0 1015.4 0.7 56
2019-11-13 19:00:00 19.5 6 Noroeste 20 Norte 0 1015.3 1 50
2019-11-13 18:00:00 21.2 9 Norte 21 Norte 0 1015 0.5 45
2019-11-13 17:00:00 22.5 9 Noroeste 22 Nordeste 0 1014.7 -0.4 43
2019-11-13 16:00:00 23.1 9 Noroeste 22 Norte 0 1014.3 -1.4 42
2019-11-13 15:00:00 23.2 10 Noroeste 26 Noroeste 0 1014.5 -1.7 43
2019-11-13 14:00:00 22 9 Noroeste 23 Norte 0 1015.1 -1 46
2019-11-13 13:00:00 21.8 8 Noroeste 24 Noroeste 0 1015.7 0.1 49
2019-11-13 12:00:00 20.1 8 Oeste 28 Noroeste 0 1016.2 1.2 64
2019-11-13 11:00:00 19.4 5 Oeste 21 Oeste 0 1016.1 1.2 63
2019-11-13 10:00:00 18.4 10 Sudoeste 21 Sudoeste 0 1015.6 1.1 72
2019-11-13 09:00:00 16.1 7 Oeste 19 Oeste 0 1015 0.5 89
2019-11-13 08:00:00 15.4 12 Oeste 23 Sudoeste 0 1014.9 -0.1 90
2019-11-13 07:00:00 14.9 8 Oeste 21 Sudoeste 0 1014.5 -0.5 90
2019-11-13 06:00:00 14.8 11 Sudoeste 22 Sudoeste 0 1014.5 -1.2 89
2019-11-13 05:00:00 14.9 10 Oeste 19 Oeste 0 1015 -1.2 86
2019-11-13 04:00:00 14.9 13 Oeste 23 Sudoeste 0 1015 -1.6 83
2019-11-13 03:00:00 15.3 12 Oeste 24 Oeste 0 1015.7 -1.2 80
2019-11-13 02:00:00 14.9 9 Sudoeste 17 Sudoeste 0 1016.2 -0.8 75
2019-11-13 01:00:00 14.4 4 Oeste 15 Oeste 0 1016.6 -0.5 73
2019-11-13 00:00:00 14.7 7 Oeste 15 Oeste 0 1016.9 -0.3 71
2019-11-12 23:00:00 15 8 Oeste 14 Oeste 0 1017 -0.1 71
2019-11-12 22:00:00 13.9 4 Sudoeste 8 Sudoeste 0 1017.1 0.4 69
2019-11-12 21:00:00 15.3 0 Calma 17 Norte 0 1017.2 0.8 64
2019-11-12 20:00:00 17 8 Noroeste 24 Noroeste 0 1017.1 1.2 57
2019-11-12 19:00:00 18 13 Noroeste 29 Norte 0 1016.7 0.3 53
2019-11-12 18:00:00 19 12 Noroeste 29 Norte 0 1016.4 -0.3 47
2019-11-12 17:00:00 20.3 11 Norte 30 Noroeste 0 1015.9 -1.3 41
2019-11-12 16:00:00 21.1 12 Noroeste 27 Noroeste 0 1016.4 -1.6 39
2019-11-12 15:00:00 21.2 12 Norte 29 Noroeste 0 1016.7 -1.8 37
2019-11-12 14:00:00 20.3 11 Noroeste 30 Noroeste 0 1017.2 -1 38
2019-11-12 13:00:00 19.3 8 Norte 22 Norte 0 1018 -0.5 42
2019-11-12 12:00:00 17.5 10 Noroeste 27 Norte 0 1018.5 0.6 49
2019-11-12 11:00:00 16 10 Norte 24 Noroeste 0 1018.2 0.8 57
2019-11-12 10:00:00 13.8 12 Noroeste 21 Norte 0 1018.5 1.7 66
2019-11-12 09:00:00 12.4 2 Sudeste 10 Noroeste 0 1017.9 1.1 75
2019-11-12 08:00:00 11.5 0 Calma 18 Noroeste 0 1017.4 0.8 78
2019-11-12 07:00:00 12.3 10 Norte 23 Norte 0 1016.8 -0.3 77
2019-11-12 06:00:00 12.5 6 Noroeste 17 Noroeste 0 1016.8 -0.5 76
2019-11-12 05:00:00 12.8 0 Calma 14 Noroeste 0 1016.6 -0.8 75
2019-11-12 04:00:00 13.1 6 Noroeste 18 Norte 0 1017.1 -0.4 74
2019-11-12 03:00:00 13.4 6 Noroeste 26 Noroeste 0 1017.3 -0.6 72
2019-11-12 02:00:00 14 12 Noroeste 31 Noroeste 0 1017.4 -0.5 70
2019-11-12 01:00:00 14.5 6 Norte 23 Noroeste 0 1017.5 -0.4 68
2019-11-12 00:00:00 15 10 Noroeste 25 Norte 0 1017.9 1 66